»·PEaware :: CGHFO KTOA-KRNM

CGHFO :: KTOA-KRNM

FLIGHT INFORMATION

Flight Status: Arrived
Operator: Unknown
More flights by this operator :: More flights under this callsign
Pilot: Basie S. (26327)
Aircraft: BEECH AIRCRAFT DEBONAIR BONANZA
(BE33)
More flights by this aircraft type
Origin: KTOA Zamperini
United States
Destination: KRNM Ramona
United States
More flights between these airports :: More routes between these airports
Route: +LIMBO V64 V363 DANAH V23 OCN V208 JLI
File this flight plan on PilotEdge
Remarks: SCTP21 TEC ROUTE. KTOA ODP
Altitude:
(Current/Filed)
7,000ft
Speed:
(Current/Filed)
155kts
Departed: 15-Dec-19 03:02 PM
Arrived: 15-Dec-19 04:03 PM
Distance/Time
Traveled:
85nm/1:01
Distance/Time
To Go:
Arrived

Flight Plot

Page will automatically refresh every two minutes.


Map Options




Map Legend


Flown Route
Filed Route
Departure Airport
Arrival Airport
Navaid (VOR, NDB)
Fix

Horizontal Profiles

Position Reports

Time Latitude Longitude Heading Altitude Ground
Speed
15-Dec-19 14:40 33.803347 -118.344051 39 107ft 0kts
15-Dec-19 14:41 33.803347 -118.344051 39 107ft 0kts
15-Dec-19 14:42 33.803347 -118.344051 39 107ft 0kts
15-Dec-19 14:43 33.803347 -118.344051 39 107ft 0kts
15-Dec-19 14:44 33.803347 -118.344051 39 107ft 0kts
15-Dec-19 14:45 33.803347 -118.344051 39 107ft 0kts
15-Dec-19 14:46 33.803347 -118.344051 39 107ft 0kts
15-Dec-19 14:48 33.803347 -118.344051 39 107ft 0kts
15-Dec-19 14:49 33.803347 -118.344051 39 107ft 0kts
15-Dec-19 14:50 33.803347 -118.344051 39 107ft 0kts
15-Dec-19 14:51 33.803347 -118.344051 39 107ft 0kts
15-Dec-19 14:52 33.803347 -118.344051 39 107ft 0kts
15-Dec-19 14:53 33.803347 -118.344051 39 107ft 0kts
15-Dec-19 14:54 33.803347 -118.344051 39 107ft 0kts
15-Dec-19 14:55 33.803347 -118.344051 39 107ft 0kts
15-Dec-19 14:56 33.803347 -118.344051 39 107ft 0kts
15-Dec-19 14:57 33.802894 -118.341839 124 107ft 10kts
15-Dec-19 14:58 33.800746 -118.338617 131 107ft 23kts
15-Dec-19 14:59 33.798057 -118.334474 102 107ft 7kts
15-Dec-19 15:00 33.798882 -118.333500 37 107ft 3kts
15-Dec-19 15:01 33.799059 -118.333337 38 107ft 0kts
15-Dec-19 15:02 33.802128 -118.336740 312 107ft 78kts
15-Dec-19 15:03 33.818947 -118.363618 312 769ft 118kts
15-Dec-19 15:04 33.835675 -118.397309 301 1435ft 110kts
15-Dec-19 15:04 33.847304 -118.423274 295 1980ft 104kts
15-Dec-19 15:06 33.818017 -118.443923 192 2780ft 121kts
15-Dec-19 15:07 33.785413 -118.447112 193 3428ft 111kts
15-Dec-19 15:07 33.761500 -118.444258 132 3912ft 112kts
15-Dec-19 15:08 33.760216 -118.408612 99 4312ft 120kts
15-Dec-19 15:10 33.750313 -118.361188 88 4772ft 130kts
15-Dec-19 15:11 33.746233 -118.316570 91 5175ft 136kts
15-Dec-19 15:11 33.741832 -118.278652 91 5504ft 137kts
15-Dec-19 15:12 33.736388 -118.230449 93 5923ft 157kts
15-Dec-19 15:13 33.729841 -118.176538 92 6325ft 166kts
15-Dec-19 15:14 33.723263 -118.121337 91 6716ft 166kts
15-Dec-19 15:15 33.716714 -118.066190 92 7001ft 171kts
15-Dec-19 15:16 33.709738 -118.007717 92 7000ft 180kts
15-Dec-19 15:17 33.702493 -117.947423 93 7000ft 183kts
15-Dec-19 15:18 33.695186 -117.886839 93 7000ft 183kts
15-Dec-19 15:19 33.687793 -117.825802 94 7001ft 184kts
15-Dec-19 15:20 33.680405 -117.765024 93 7002ft 183kts
15-Dec-19 15:21 33.647485 -117.726696 180 7006ft 179kts
15-Dec-19 15:22 33.597790 -117.717657 176 7001ft 180kts
15-Dec-19 15:23 33.548168 -117.709124 177 7003ft 180kts
15-Dec-19 15:24 33.498565 -117.700811 177 7005ft 180kts
15-Dec-19 15:25 33.455968 -117.669239 136 7008ft 188kts
15-Dec-19 15:26 33.418685 -117.624796 135 7011ft 189kts
15-Dec-19 15:27 33.381065 -117.580563 136 7012ft 190kts
15-Dec-19 15:28 33.343167 -117.536308 136 7010ft 190kts
15-Dec-19 15:29 33.305380 -117.492251 136 7009ft 190kts
15-Dec-19 15:30 33.267379 -117.448070 137 7008ft 189kts
15-Dec-19 15:31 33.238323 -117.398003 94 7011ft 187kts
15-Dec-19 15:32 33.231277 -117.336809 94 7004ft 187kts
15-Dec-19 15:33 33.224107 -117.275139 93 7005ft 186kts
15-Dec-19 15:34 33.216827 -117.213821 93 7006ft 186kts
15-Dec-19 15:35 33.209658 -117.153564 92 7219ft 175kts
15-Dec-19 15:36 33.203067 -117.097931 91 7715ft 165kts
15-Dec-19 15:37 33.196525 -117.043174 92 8015ft 174kts
15-Dec-19 15:38 33.189378 -116.984045 94 8012ft 183kts
15-Dec-19 15:39 33.182046 -116.923521 95 8011ft 184kts
15-Dec-19 15:40 33.174667 -116.862787 95 8011ft 184kts
15-Dec-19 15:41 33.167275 -116.802126 95 8011ft 184kts
15-Dec-19 15:42 33.159879 -116.741684 95 8012ft 184kts
15-Dec-19 15:43 33.152412 -116.680903 95 8012ft 184kts
15-Dec-19 15:44 33.144942 -116.620361 95 8012ft 184kts
15-Dec-19 15:45 33.138743 -116.559630 89 8010ft 184kts
15-Dec-19 15:46 33.135926 -116.498329 90 7736ft 188kts
15-Dec-19 15:47 33.134112 -116.438910 65 7698ft 168kts
15-Dec-19 15:48 33.165336 -116.437615 295 7698ft 129kts
15-Dec-19 15:49 33.160976 -116.480333 261 7699ft 132kts
15-Dec-19 15:50 33.152328 -116.523825 261 7705ft 136kts
15-Dec-19 15:51 33.143678 -116.568421 261 7709ft 138kts
15-Dec-19 15:52 33.132454 -116.610550 254 7343ft 118kts
15-Dec-19 15:53 33.121233 -116.645592 253 6750ft 110kts
15-Dec-19 15:54 33.111341 -116.676497 254 6710ft 92kts
15-Dec-19 15:55 33.101664 -116.707923 253 6299ft 106kts
15-Dec-19 15:56 33.091197 -116.740758 253 5805ft 104kts
15-Dec-19 15:57 33.080760 -116.773465 252 5235ft 107kts
15-Dec-19 15:58 33.069733 -116.804363 246 4952ft 100kts
15-Dec-19 15:59 33.057492 -116.836987 258 4178ft 117kts
15-Dec-19 16:00 33.045025 -116.874840 240 2398ft 130kts
15-Dec-19 16:01 33.037302 -116.904287 284 1522ft 84kts
15-Dec-19 16:02 33.039525 -116.915051 3 1399ft 0kts
15-Dec-19 16:03 33.039525 -116.915051 3 1399ft 0kts
15-Dec-19 16:04 33.039525 -116.915051 3 1399ft 0kts
15-Dec-19 16:05 33.039525 -116.915051 3 1399ft 0kts
15-Dec-19 16:06 33.039525 -116.915051 3 1399ft 0kts
15-Dec-19 16:07 33.040046 -116.913566 19 1399ft 3kts

Navigation Log

Ident Type
Flight plan parsing failed, navigation log unavailable